createdAt,value
2018-10-09T00:00:26.733Z,100978.92
2018-10-09T00:05:30.149Z,100974.40
2018-10-09T00:10:33.648Z,100976.47
2018-10-09T00:15:37.121Z,100962.25
2018-10-09T00:20:40.556Z,100969.58
2018-10-09T00:25:43.964Z,100970.41
2018-10-09T00:30:47.404Z,100976.85
2018-10-09T00:35:50.820Z,100965.59
2018-10-09T00:40:54.256Z,100961.50
2018-10-09T00:51:00.120Z,100952.02
2018-10-09T00:56:03.531Z,100944.67
2018-10-09T01:01:06.987Z,100932.03
2018-10-09T01:06:10.416Z,100933.61
2018-10-09T01:11:13.865Z,100932.20
2018-10-09T01:16:17.265Z,100941.73
2018-10-09T01:21:20.764Z,100947.22
2018-10-09T01:26:24.201Z,100946.96
2018-10-09T01:31:27.612Z,100941.30
2018-10-09T01:36:31.040Z,100941.64
2018-10-09T01:41:34.460Z,100939.06
2018-10-09T01:46:37.868Z,100940.12
2018-10-09T01:51:41.297Z,100929.60
2018-10-09T01:56:44.704Z,100922.59
2018-10-09T02:01:48.116Z,100917.71
2018-10-09T02:06:51.534Z,100922.70
2018-10-09T02:11:54.939Z,100916.48
2018-10-09T02:16:58.357Z,100923.20
2018-10-09T02:22:01.773Z,100923.39
2018-10-09T02:27:05.212Z,100929.73
2018-10-09T02:32:08.648Z,100936.08
2018-10-09T02:37:12.043Z,100941.56
2018-10-09T02:42:15.452Z,100940.81
2018-10-09T02:47:18.863Z,100930.19
2018-10-09T02:52:22.274Z,100932.47
2018-10-09T02:57:25.680Z,100943.32
2018-10-09T03:02:29.160Z,100945.27
2018-10-09T03:07:32.564Z,100946.72
2018-10-09T03:12:35.987Z,100950.26
2018-10-09T03:17:39.432Z,100951.83
2018-10-09T03:22:42.910Z,100959.96
2018-10-09T03:27:46.322Z,100964.10
2018-10-09T03:32:49.732Z,100953.95
2018-10-09T03:37:53.151Z,100961.05
2018-10-09T03:42:56.568Z,100957.61
2018-10-09T03:47:59.976Z,100956.01
2018-10-09T03:53:03.412Z,100951.76
2018-10-09T03:58:07.083Z,100949.19
2018-10-09T04:03:10.496Z,100952.35
2018-10-09T04:08:13.961Z,100953.44
2018-10-09T04:13:17.389Z,100940.57
2018-10-09T04:18:20.835Z,100929.95
2018-10-09T04:23:24.262Z,100917.12
2018-10-09T04:28:27.713Z,100916.38
2018-10-09T04:33:31.175Z,100920.02
2018-10-09T04:38:34.599Z,100925.88
2018-10-09T04:43:38.024Z,100920.59
2018-10-09T04:48:41.435Z,100940.45
2018-10-09T04:53:44.869Z,100941.91
2018-10-09T04:58:48.297Z,100926.78
2018-10-09T05:03:51.734Z,100928.60
2018-10-09T05:08:55.150Z,100925.17
2018-10-09T05:13:58.584Z,100922.19
2018-10-09T05:19:02.025Z,100926.55
2018-10-09T05:24:05.448Z,100934.71
2018-10-09T05:29:08.877Z,100925.50
2018-10-09T05:34:12.321Z,100937.58
2018-10-09T05:39:15.758Z,100940.86
2018-10-09T05:44:19.256Z,100945.47
2018-10-09T05:49:22.643Z,100945.58
2018-10-09T05:54:26.101Z,100952.40
2018-10-09T05:59:29.536Z,100956.50
2018-10-09T06:04:32.960Z,100965.41
2018-10-09T06:09:36.400Z,100968.20
2018-10-09T06:14:39.832Z,100980.77
2018-10-09T06:19:43.252Z,100991.50
2018-10-09T06:24:46.668Z,100994.17
2018-10-09T06:29:50.100Z,100997.45
2018-10-09T06:34:53.525Z,100995.63
2018-10-09T06:39:56.960Z,101001.09
2018-10-09T06:45:00.423Z,101004.64
2018-10-09T06:50:03.995Z,101014.80
2018-10-09T06:55:07.428Z,101024.70
2018-10-09T07:00:10.892Z,101028.52
2018-10-09T07:05:14.333Z,101029.95
2018-10-09T07:10:17.767Z,101027.47
2018-10-09T07:15:21.209Z,101037.16
2018-10-09T07:20:24.644Z,101036.68
2018-10-09T07:25:28.099Z,101041.83
2018-10-09T07:30:31.532Z,101052.56
2018-10-09T07:35:34.956Z,101042.20
2018-10-09T07:40:38.378Z,101051.88
2018-10-09T07:45:41.823Z,101049.67
2018-10-09T07:50:45.264Z,101045.54
2018-10-09T07:55:48.701Z,101049.01
2018-10-09T08:00:52.133Z,101061.08
2018-10-09T08:05:55.570Z,101075.25
2018-10-09T08:10:59.065Z,101089.05
2018-10-09T08:16:02.557Z,101083.58
2018-10-09T08:21:06.122Z,101091.14
2018-10-09T08:26:09.551Z,101079.44
2018-10-09T08:31:13.015Z,101083.36
2018-10-09T08:36:16.506Z,101075.23
2018-10-09T08:41:20.075Z,101068.47
2018-10-09T08:46:23.506Z,101088.52
2018-10-09T08:51:26.881Z,101098.56
2018-10-09T08:56:30.438Z,101098.05
2018-10-09T09:01:33.881Z,101091.30
2018-10-09T09:06:37.329Z,101097.93
2018-10-09T09:11:40.781Z,101100.52
2018-10-09T09:16:44.250Z,101100.55
2018-10-09T09:21:47.729Z,101103.52
2018-10-09T09:26:51.218Z,101110.95
2018-10-09T09:31:54.670Z,101111.13
2018-10-09T09:36:58.153Z,101117.48
2018-10-09T09:42:01.577Z,101117.25
2018-10-09T09:47:05.025Z,101117.55
2018-10-09T09:52:08.555Z,101120.66
2018-10-09T09:57:12.045Z,101117.66
2018-10-09T10:02:15.481Z,101123.30
2018-10-09T10:07:18.920Z,101122.11
2018-10-09T10:12:22.369Z,101122.35
2018-10-09T10:17:25.813Z,101115.44
2018-10-09T10:22:29.375Z,101116.09
2018-10-09T10:27:33.070Z,101109.03
2018-10-09T10:32:36.500Z,101101.72
2018-10-09T10:37:39.943Z,101112.38
2018-10-09T10:42:43.760Z,101108.94
2018-10-09T10:47:47.189Z,101110.62
2018-10-09T10:52:50.715Z,101104.22
2018-10-09T10:57:54.149Z,101102.09
2018-10-09T11:02:57.585Z,101096.84
2018-10-09T11:08:01.127Z,101095.20
2018-10-09T11:13:04.510Z,101090.72
2018-10-09T11:18:07.945Z,101076.16
2018-10-09T11:23:11.395Z,101070.27
2018-10-09T11:28:14.869Z,101066.16
2018-10-09T11:33:18.356Z,101054.55
2018-10-09T11:38:21.765Z,101056.46
2018-10-09T11:43:25.212Z,101053.41
2018-10-09T11:48:28.661Z,101048.52
2018-10-09T11:53:32.105Z,101043.71
2018-10-09T11:58:35.568Z,101040.75
2018-10-09T12:03:38.988Z,101036.73
2018-10-09T12:08:42.421Z,101032.29
2018-10-09T12:13:45.901Z,101029.98
2018-10-09T12:18:49.358Z,101027.28
2018-10-09T12:23:52.837Z,101026.61
2018-10-09T12:28:56.369Z,101024.89
2018-10-09T12:33:59.797Z,101022.35
2018-10-09T12:39:04.235Z,101018.62
2018-10-09T12:44:07.881Z,101013.69
2018-10-09T12:49:11.333Z,101005.52
2018-10-09T12:54:14.763Z,100997.05
2018-10-09T12:59:18.226Z,100988.95
2018-10-09T13:04:21.647Z,100982.80
2018-10-09T13:09:25.143Z,100985.75
2018-10-09T13:14:28.572Z,100981.61
2018-10-09T13:19:32.038Z,100990.88
2018-10-09T13:24:35.494Z,100987.84
2018-10-09T13:29:38.929Z,100986.05
2018-10-09T13:34:42.339Z,100975.84
2018-10-09T13:39:45.773Z,100978.07
2018-10-09T13:50:25.291Z,100962.42
2018-10-09T13:55:28.701Z,100970.34
2018-10-09T14:00:32.211Z,100965.33
2018-10-09T14:05:35.633Z,100968.53
2018-10-09T14:10:39.059Z,100964.58
2018-10-09T14:15:42.537Z,100961.71
2018-10-09T14:20:45.978Z,100957.91
2018-10-09T14:25:49.441Z,100941.80
2018-10-09T14:30:52.889Z,100950.19
2018-10-09T14:35:56.396Z,100946.58
2018-10-09T14:41:00.031Z,100950.71
2018-10-09T14:46:03.826Z,100947.17
2018-10-09T14:51:07.539Z,100937.52
2018-10-09T14:56:10.972Z,100935.80
2018-10-09T15:01:14.701Z,100942.39
2018-10-09T15:06:18.401Z,100941.27
2018-10-09T15:11:21.884Z,100939.45
2018-10-09T15:16:25.625Z,100939.82
2018-10-09T15:21:29.115Z,100935.05
2018-10-09T15:26:32.964Z,100938.41
2018-10-09T15:31:36.651Z,100939.78
2018-10-09T15:36:40.239Z,100943.28
2018-10-09T15:41:43.914Z,100950.23
2018-10-09T15:46:47.526Z,100943.92
2018-10-09T15:51:51.341Z,100938.07
2018-10-09T15:56:55.176Z,100937.31
2018-10-09T16:01:58.642Z,100942.80
2018-10-09T16:07:02.121Z,100950.59
2018-10-09T16:12:05.576Z,100951.84
2018-10-09T16:17:09.060Z,100949.09
2018-10-09T16:22:12.535Z,100955.81
2018-10-09T16:27:16.005Z,100957.39
2018-10-09T16:32:19.515Z,100962.20
2018-10-09T16:37:22.954Z,100968.16
2018-10-09T16:42:26.418Z,100969.98
2018-10-09T16:47:29.923Z,100976.55
2018-10-09T16:52:33.374Z,100970.73
2018-10-09T16:57:36.853Z,100983.78
2018-10-09T17:02:40.313Z,100987.70
2018-10-09T17:07:43.801Z,100983.41
2018-10-09T17:12:47.268Z,100988.86
2018-10-09T17:17:50.751Z,100985.13
2018-10-09T17:22:54.210Z,100985.61
2018-10-09T17:27:57.685Z,100990.02
2018-10-09T17:33:01.218Z,100992.33
2018-10-09T17:38:04.642Z,101001.34
2018-10-09T17:43:08.290Z,101000.97
2018-10-09T17:48:11.784Z,101008.02
2018-10-09T17:53:15.255Z,101010.52
2018-10-09T17:58:18.749Z,101004.88
2018-10-09T18:03:22.344Z,101008.91
2018-10-09T18:08:25.965Z,101007.84
2018-10-09T18:13:29.426Z,101007.65
2018-10-09T18:18:32.889Z,101010.11
2018-10-09T18:23:36.313Z,101013.92
2018-10-09T18:28:39.776Z,101006.54
2018-10-09T18:33:43.236Z,101003.52
2018-10-09T18:38:46.675Z,101005.12
2018-10-09T18:43:50.141Z,101009.34
2018-10-09T18:48:53.580Z,101010.95
2018-10-09T18:53:57.026Z,101014.38
2018-10-09T18:59:00.558Z,101012.48
2018-10-09T19:04:04.029Z,101013.59
2018-10-09T19:09:10.556Z,101007.63
2018-10-09T19:14:13.962Z,101011.06
2018-10-09T19:19:17.408Z,101017.59
2018-10-09T19:24:20.954Z,101019.30
2018-10-09T19:29:24.542Z,101017.88
2018-10-09T19:34:28.113Z,101023.52
2018-10-09T19:39:31.593Z,101033.66
2018-10-09T19:44:35.211Z,101035.41
2018-10-09T19:49:38.696Z,101035.87
